createdAt,value
2018-04-11T00:00:13.378Z,5.90
2018-04-11T00:02:40.855Z,7.83
2018-04-11T00:05:08.305Z,7.00
2018-04-11T00:07:35.763Z,10.57
2018-04-11T00:10:03.223Z,11.33
2018-04-11T00:12:30.681Z,9.67
2018-04-11T00:14:58.129Z,7.67
2018-04-11T00:17:25.582Z,5.70
2018-04-11T00:19:53.017Z,5.57
2018-04-11T00:22:20.465Z,4.30
2018-04-11T00:24:47.922Z,3.90
2018-04-11T00:27:15.367Z,3.07
2018-04-11T00:29:42.820Z,3.73
2018-04-11T00:32:10.251Z,2.97
2018-04-11T00:34:37.698Z,3.13
2018-04-11T00:37:05.142Z,2.80
2018-04-11T00:39:32.609Z,2.60
2018-04-11T00:42:00.061Z,2.53
2018-04-11T00:44:27.511Z,2.57
2018-04-11T00:46:54.972Z,3.10
2018-04-11T00:49:22.457Z,2.57
2018-04-11T00:51:49.902Z,2.47
2018-04-11T00:54:17.350Z,3.00
2018-04-11T00:56:44.802Z,3.20
2018-04-11T00:59:12.259Z,3.37
2018-04-11T01:01:39.710Z,3.50
2018-04-11T01:04:07.155Z,4.13
2018-04-11T01:06:34.587Z,4.40
2018-04-11T01:09:02.033Z,3.60
2018-04-11T01:11:29.482Z,3.70
2018-04-11T01:13:57.706Z,4.53
2018-04-11T01:16:25.153Z,5.23
2018-04-11T01:18:52.623Z,5.60
2018-04-11T01:21:20.060Z,6.13
2018-04-11T01:23:47.529Z,5.90
2018-04-11T01:26:14.994Z,4.47
2018-04-11T01:28:42.477Z,3.70
2018-04-11T01:31:09.943Z,4.23
2018-04-11T01:33:37.374Z,4.50
2018-04-11T01:36:04.850Z,4.73
2018-04-11T01:38:32.310Z,4.40
2018-04-11T01:40:59.790Z,4.70
2018-04-11T01:43:28.024Z,5.60
2018-04-11T01:45:55.487Z,5.73
2018-04-11T01:48:22.939Z,5.77
2018-04-11T01:50:50.402Z,4.83
2018-04-11T01:53:17.841Z,5.00
2018-04-11T01:55:45.299Z,5.60
2018-04-11T01:58:12.758Z,5.97
2018-04-11T02:00:40.218Z,4.90
2018-04-11T02:03:07.676Z,4.53
2018-04-11T02:05:35.133Z,5.13
2018-04-11T02:08:02.591Z,4.97
2018-04-11T02:10:30.053Z,5.07
2018-04-11T02:12:57.511Z,5.80
2018-04-11T02:15:24.963Z,6.77
2018-04-11T02:17:52.455Z,7.10
2018-04-11T02:20:19.902Z,7.40
2018-04-11T02:22:47.365Z,7.90
2018-04-11T02:25:14.822Z,7.70
2018-04-11T02:27:42.290Z,8.23
2018-04-11T02:30:09.782Z,8.93
2018-04-11T02:32:37.231Z,8.37
2018-04-11T02:35:04.684Z,9.50
2018-04-11T02:37:32.913Z,8.33
2018-04-11T02:40:00.381Z,9.00
2018-04-11T02:42:27.838Z,12.00
2018-04-11T02:44:55.334Z,12.50
2018-04-11T02:47:22.758Z,13.77
2018-04-11T02:49:50.202Z,13.80
2018-04-11T02:52:17.654Z,13.60
2018-04-11T02:54:45.090Z,12.53
2018-04-11T02:57:12.575Z,15.40
2018-04-11T02:59:40.075Z,12.30
2018-04-11T03:02:08.274Z,14.27
2018-04-11T03:04:35.735Z,14.67
2018-04-11T03:07:03.198Z,15.93
2018-04-11T03:09:30.659Z,13.57
2018-04-11T03:11:58.115Z,24.10
2018-04-11T03:14:25.622Z,25.30
2018-04-11T03:16:53.018Z,20.70
2018-04-11T03:19:20.478Z,20.47
2018-04-11T03:21:47.982Z,21.20
2018-04-11T03:24:15.408Z,24.63
2018-04-11T03:26:42.858Z,26.30
2018-04-11T03:29:10.310Z,30.60
2018-04-11T03:31:37.787Z,19.93
2018-04-11T03:34:05.268Z,23.40
2018-04-11T03:36:32.699Z,17.87
2018-04-11T03:39:00.155Z,24.87
2018-04-11T03:41:27.611Z,21.63
2018-04-11T03:43:55.083Z,21.23
2018-04-11T03:46:22.795Z,19.63
2018-04-11T03:48:50.990Z,17.33
2018-04-11T03:51:18.454Z,19.73
2018-04-11T03:53:45.898Z,16.47
2018-04-11T03:56:13.358Z,18.60
2018-04-11T03:58:40.806Z,21.13
2018-04-11T04:01:08.290Z,23.87
2018-04-11T04:03:35.746Z,22.70
2018-04-11T04:06:03.203Z,20.67
2018-04-11T04:08:30.646Z,15.33
2018-04-11T04:10:58.102Z,14.93
2018-04-11T04:13:37.338Z,13.97
2018-04-11T04:16:16.534Z,17.43
2018-04-11T04:18:56.723Z,10.53
2018-04-11T04:21:24.183Z,13.67
2018-04-11T04:23:51.650Z,15.43
2018-04-11T04:26:19.934Z,17.63
2018-04-11T04:28:47.394Z,22.57
2018-04-11T04:31:14.842Z,28.50
2018-04-11T04:33:42.298Z,26.03
2018-04-11T04:36:09.754Z,14.80
2018-04-11T04:38:37.962Z,25.80
2018-04-11T04:41:05.410Z,17.67
2018-04-11T04:43:32.853Z,15.57
2018-04-11T04:46:00.323Z,18.80
2018-04-11T04:48:27.771Z,24.07
2018-04-11T04:50:55.230Z,28.07
2018-04-11T04:53:22.691Z,29.13
2018-04-11T04:55:50.138Z,25.30
2018-04-11T04:58:17.590Z,19.23
2018-04-11T05:00:45.074Z,26.27
2018-04-11T05:03:12.520Z,32.53
2018-04-11T05:05:39.980Z,26.00
2018-04-11T05:08:07.437Z,25.50
2018-04-11T05:10:34.879Z,26.63
2018-04-11T05:13:02.359Z,26.83
2018-04-11T05:15:29.802Z,28.07
2018-04-11T05:17:57.253Z,28.93
2018-04-11T05:20:24.710Z,23.37
2018-04-11T05:22:52.162Z,22.47
2018-04-11T05:25:19.623Z,21.17
2018-04-11T05:27:47.078Z,23.43
2018-04-11T05:30:14.530Z,22.80
2018-04-11T05:32:42.046Z,25.53
2018-04-11T05:35:09.443Z,22.30
2018-04-11T05:37:36.902Z,20.10
2018-04-11T05:40:04.390Z,16.77
2018-04-11T05:42:31.826Z,16.47
2018-04-11T05:44:59.270Z,14.53
2018-04-11T05:47:26.734Z,20.07
2018-04-11T05:49:54.181Z,17.87
2018-04-11T05:52:21.634Z,16.20
2018-04-11T05:54:49.098Z,17.10
2018-04-11T05:57:16.550Z,18.10
2018-04-11T05:59:44.014Z,20.70
2018-04-11T06:02:11.466Z,18.63
2018-04-11T06:04:38.923Z,13.70
2018-04-11T06:07:06.370Z,12.20
2018-04-11T06:09:33.827Z,11.93
2018-04-11T06:12:01.305Z,10.40
2018-04-11T06:14:28.762Z,11.50
2018-04-11T06:16:56.224Z,8.83
2018-04-11T06:19:23.667Z,9.60
2018-04-11T06:21:51.110Z,8.63
2018-04-11T06:24:18.550Z,9.03
2018-04-11T06:26:45.990Z,10.03
2018-04-11T06:29:14.227Z,13.03
2018-04-11T06:31:41.690Z,12.07
2018-04-11T06:34:09.137Z,9.53
2018-04-11T06:36:36.577Z,11.17
2018-04-11T06:39:04.031Z,10.27
2018-04-11T06:41:31.490Z,9.67
2018-04-11T06:43:58.960Z,9.60
2018-04-11T06:46:26.421Z,11.10
2018-04-11T06:48:53.862Z,10.83
2018-04-11T06:51:21.327Z,10.77
2018-04-11T06:53:48.769Z,12.27
2018-04-11T06:56:16.226Z,11.67
2018-04-11T06:58:43.686Z,10.33
2018-04-11T07:01:11.151Z,11.70
2018-04-11T07:03:38.610Z,12.57
2018-04-11T07:06:06.073Z,13.50
2018-04-11T07:08:33.538Z,14.27
2018-04-11T07:11:00.995Z,13.07
2018-04-11T07:13:28.442Z,12.10
2018-04-11T07:15:55.914Z,11.57
2018-04-11T07:18:23.371Z,10.90
2018-04-11T07:20:50.823Z,11.37
2018-04-11T07:23:18.277Z,10.13
2018-04-11T07:25:45.754Z,10.20
2018-04-11T07:28:13.175Z,10.40
2018-04-11T07:30:40.629Z,10.30
2018-04-11T07:33:08.099Z,10.40
2018-04-11T07:35:35.550Z,10.23
2018-04-11T07:38:03.018Z,10.10
2018-04-11T07:40:30.478Z,10.33
2018-04-11T07:42:57.932Z,10.30
2018-04-11T07:45:25.382Z,11.87
2018-04-11T07:47:52.850Z,12.93
2018-04-11T07:50:20.297Z,10.83
2018-04-11T07:52:47.760Z,10.73
2018-04-11T07:55:15.217Z,11.83
2018-04-11T07:57:42.670Z,11.13
2018-04-11T08:00:10.133Z,9.13
2018-04-11T08:02:37.588Z,8.90
2018-04-11T08:05:05.036Z,10.00
2018-04-11T08:07:32.483Z,9.20
2018-04-11T08:09:59.997Z,9.00
2018-04-11T08:12:27.382Z,7.70
2018-04-11T08:14:54.859Z,8.07
2018-04-11T08:17:22.334Z,8.93
2018-04-11T08:19:49.775Z,8.40
2018-04-11T08:22:17.209Z,8.10
2018-04-11T08:24:44.662Z,6.07
2018-04-11T08:27:12.102Z,6.03
2018-04-11T08:29:40.314Z,5.80
2018-04-11T08:32:07.782Z,6.10
2018-04-11T08:34:35.233Z,6.07
2018-04-11T08:37:02.678Z,5.80
2018-04-11T08:39:30.149Z,5.47
2018-04-11T08:41:57.588Z,5.20
2018-04-11T08:44:25.025Z,5.40
2018-04-11T08:46:53.234Z,5.47
2018-04-11T08:49:20.677Z,5.60
2018-04-11T08:51:48.114Z,4.93
2018-04-11T08:54:16.338Z,4.63
2018-04-11T08:56:43.774Z,5.47
2018-04-11T08:59:11.233Z,4.50
2018-04-11T09:01:38.682Z,3.60
2018-04-11T09:04:06.129Z,4.20
2018-04-11T09:06:33.568Z,4.63
2018-04-11T09:09:01.775Z,3.90
2018-04-11T09:11:29.226Z,3.20
2018-04-11T09:13:56.809Z,3.33
2018-04-11T09:16:24.251Z,3.60
2018-04-11T09:18:52.072Z,3.10
2018-04-11T09:21:20.302Z,2.93
2018-04-11T09:23:47.738Z,2.93
2018-04-11T09:26:15.190Z,2.93
2018-04-11T09:28:42.638Z,2.80
2018-04-11T09:31:10.853Z,1.73
2018-04-11T09:33:38.298Z,2.90
2018-04-11T09:36:05.759Z,3.30
2018-04-11T09:38:33.201Z,3.17
2018-04-11T09:41:00.649Z,3.30
2018-04-11T09:43:28.084Z,2.97
2018-04-11T09:45:56.307Z,2.97
2018-04-11T09:48:23.750Z,2.30
2018-04-11T09:50:51.201Z,2.43
2018-04-11T09:53:18.637Z,2.00
2018-04-11T09:55:46.857Z,1.90
2018-04-11T09:58:14.290Z,1.63
2018-04-11T10:00:41.727Z,1.60
2018-04-11T10:03:09.949Z,1.60
2018-04-11T10:05:37.382Z,1.40
2018-04-11T10:08:04.834Z,1.57
2018-04-11T10:10:32.272Z,1.40
2018-04-11T10:13:00.482Z,1.00
2018-04-11T10:15:27.914Z,1.00
2018-04-11T10:17:55.362Z,1.20
2018-04-11T10:20:23.570Z,1.10
2018-04-11T10:22:51.015Z,1.20
2018-04-11T10:25:18.454Z,2.13
2018-04-11T10:27:46.670Z,1.30
2018-04-11T10:30:14.128Z,1.30
2018-04-11T10:32:41.574Z,1.50
2018-04-11T10:35:09.010Z,1.30
2018-04-11T10:37:36.462Z,1.17
2018-04-11T10:40:03.898Z,1.10
2018-04-11T10:42:31.365Z,1.30
2018-04-11T10:44:59.570Z,1.20
2018-04-11T10:47:27.018Z,1.00
2018-04-11T10:49:54.458Z,1.20
2018-04-11T10:52:22.665Z,1.20
2018-04-11T10:54:50.106Z,1.00
2018-04-11T10:57:17.550Z,1.00
2018-04-11T10:59:45.751Z,1.00
2018-04-11T11:02:13.209Z,1.30
2018-04-11T11:04:40.643Z,1.37
2018-04-11T11:07:08.846Z,1.30
2018-04-11T11:09:36.290Z,1.20
2018-04-11T11:12:03.754Z,1.30
2018-04-11T11:14:31.189Z,1.40
2018-04-11T11:16:58.645Z,0.87
2018-04-11T11:19:26.086Z,1.00
2018-04-11T11:21:54.299Z,1.20
2018-04-11T11:24:21.731Z,1.00
2018-04-11T11:26:49.941Z,1.47
2018-04-11T11:29:17.386Z,1.10
2018-04-11T11:31:44.843Z,1.00
2018-04-11T11:34:12.325Z,1.00
2018-04-11T11:36:39.761Z,0.90
2018-04-11T11:39:07.206Z,1.17
2018-04-11T11:41:34.675Z,1.00
2018-04-11T11:44:02.149Z,1.00
2018-04-11T11:46:29.598Z,0.87
2018-04-11T11:48:57.037Z,1.23
2018-04-11T11:51:24.498Z,1.20
2018-04-11T11:53:51.948Z,1.30
2018-04-11T11:56:19.398Z,1.10
2018-04-11T11:58:46.864Z,0.90
2018-04-11T12:01:14.306Z,1.10
2018-04-11T12:03:42.530Z,1.20
2018-04-11T12:06:09.966Z,1.10
2018-04-11T12:08:37.426Z,1.00
2018-04-11T12:11:04.887Z,1.20
2018-04-11T12:13:32.354Z,1.00
2018-04-11T12:15:59.790Z,1.10
2018-04-11T12:18:27.244Z,1.40
2018-04-11T12:20:54.685Z,1.50
2018-04-11T12:23:22.150Z,1.07
2018-04-11T12:25:49.594Z,1.60
2018-04-11T12:28:17.812Z,1.17
2018-04-11T12:30:45.274Z,1.47
2018-04-11T12:33:12.722Z,1.20
2018-04-11T12:35:40.154Z,1.50
2018-04-11T12:38:07.613Z,1.53
2018-04-11T12:40:35.062Z,1.37
2018-04-11T12:43:02.521Z,1.57
2018-04-11T12:45:29.957Z,1.53
2018-04-11T12:47:58.166Z,1.50
2018-04-11T12:50:25.604Z,1.40
2018-04-11T12:52:53.054Z,1.40
2018-04-11T12:55:21.258Z,1.50
2018-04-11T12:57:48.709Z,1.30
2018-04-11T13:00:16.150Z,1.70
2018-04-11T13:02:44.380Z,1.50
2018-04-11T13:05:11.850Z,1.60
2018-04-11T13:07:39.299Z,1.40
2018-04-11T13:10:06.726Z,1.10
2018-04-11T13:12:34.179Z,1.07
2018-04-11T13:15:01.683Z,1.30
2018-04-11T13:17:29.058Z,0.90
2018-04-11T13:19:57.285Z,1.40
2018-04-11T13:22:25.490Z,1.30
2018-04-11T13:24:52.931Z,1.90
2018-04-11T13:27:20.403Z,1.67
2018-04-11T13:29:47.846Z,1.13
2018-04-11T13:32:15.323Z,1.30
2018-04-11T13:34:42.766Z,1.30
2018-04-11T13:37:10.212Z,1.40
2018-04-11T13:39:37.671Z,1.60
2018-04-11T13:42:05.143Z,1.73
2018-04-11T13:44:32.587Z,1.40
2018-04-11T13:47:00.811Z,1.37
2018-04-11T13:49:28.252Z,1.70
2018-04-11T13:51:56.468Z,1.40
2018-04-11T13:54:23.899Z,1.17
2018-04-11T13:56:51.341Z,1.20
2018-04-11T13:59:19.542Z,1.40
2018-04-11T14:01:46.993Z,1.20
2018-04-11T14:04:14.447Z,1.23
2018-04-11T14:06:41.877Z,1.23
2018-04-11T14:09:10.094Z,1.43
2018-04-11T14:11:37.526Z,1.40
2018-04-11T14:14:05.762Z,2.10
2018-04-11T14:16:33.215Z,1.97
2018-04-11T14:19:00.708Z,1.33
2018-04-11T14:21:28.922Z,1.53
2018-04-11T14:23:56.369Z,1.60
2018-04-11T14:26:24.250Z,1.73
2018-04-11T14:28:51.723Z,1.60
2018-04-11T14:31:19.166Z,1.27
2018-04-11T14:33:46.639Z,1.30
2018-04-11T14:36:14.105Z,1.33
2018-04-11T14:38:41.565Z,1.27
2018-04-11T14:41:08.998Z,1.67
2018-04-11T14:43:36.464Z,2.07
2018-04-11T14:46:03.899Z,2.97
2018-04-11T14:48:31.329Z,2.47
2018-04-11T14:50:58.769Z,4.60
2018-04-11T14:53:27.018Z,1.40
2018-04-11T14:55:54.474Z,3.20
2018-04-11T14:58:21.922Z,2.07
2018-04-11T15:00:49.381Z,1.50
2018-04-11T15:03:16.854Z,1.83
2018-04-11T15:05:44.307Z,1.20
2018-04-11T15:08:11.751Z,1.80
2018-04-11T15:10:39.183Z,1.63
2018-04-11T15:13:06.629Z,1.30
2018-04-11T15:15:34.126Z,1.10
2018-04-11T15:18:02.291Z,1.43
2018-04-11T15:20:29.726Z,1.40
2018-04-11T15:22:57.181Z,1.10
2018-04-11T15:25:24.610Z,1.40
2018-04-11T15:27:52.826Z,1.20
2018-04-11T15:30:20.265Z,1.10
2018-04-11T15:32:47.709Z,1.10
2018-04-11T15:35:15.914Z,1.00
2018-04-11T15:37:43.354Z,1.23
2018-04-11T15:40:10.786Z,1.50
2018-04-11T15:42:38.996Z,1.67
2018-04-11T15:45:06.429Z,1.93
2018-04-11T15:47:33.882Z,2.73
2018-04-11T15:50:02.090Z,1.90
2018-04-11T15:52:29.525Z,2.10
2018-04-11T15:54:56.965Z,2.30
2018-04-11T15:57:25.188Z,1.90
2018-04-11T15:59:52.623Z,1.70
2018-04-11T16:02:20.065Z,1.80
2018-04-11T16:04:47.497Z,2.80
2018-04-11T16:07:14.933Z,2.60
2018-04-11T16:09:42.377Z,2.87
2018-04-11T16:12:09.826Z,2.63
2018-04-11T16:14:37.270Z,3.37
2018-04-11T16:17:04.705Z,2.70
2018-04-11T16:19:32.158Z,2.07
2018-04-11T16:22:00.359Z,2.97
2018-04-11T16:24:27.797Z,2.57
2018-04-11T16:26:55.239Z,2.47
2018-04-11T16:29:23.451Z,2.33
2018-04-11T16:31:50.904Z,2.60
2018-04-11T16:34:18.333Z,3.07
2018-04-11T16:36:46.550Z,2.17
2018-04-11T16:39:13.997Z,2.80
2018-04-11T16:41:41.431Z,2.50
2018-04-11T16:44:08.874Z,3.80
2018-04-11T16:46:37.085Z,2.57
2018-04-11T16:49:04.541Z,2.73
2018-04-11T16:51:31.980Z,2.90
2018-04-11T16:53:59.425Z,2.60
2018-04-11T16:56:27.635Z,2.70
2018-04-11T16:58:55.094Z,2.63
2018-04-11T17:01:22.535Z,4.33
2018-04-11T17:03:49.991Z,8.90
2018-04-11T17:06:17.419Z,3.73
2018-04-11T17:08:45.637Z,3.40
2018-04-11T17:11:13.080Z,4.50
2018-04-11T17:13:40.559Z,4.27
2018-04-11T17:16:08.043Z,4.80
2018-04-11T17:18:35.493Z,4.07
2018-04-11T17:21:14.737Z,3.60
2018-04-11T17:23:54.101Z,3.97
2018-04-11T17:26:34.229Z,2.90
2018-04-11T17:29:13.520Z,2.23
2018-04-11T17:31:40.953Z,2.07
2018-04-11T17:34:08.397Z,7.63
2018-04-11T17:36:36.608Z,3.33
2018-04-11T17:39:04.061Z,2.27
2018-04-11T17:41:31.486Z,2.17
2018-04-11T17:43:59.701Z,2.40
2018-04-11T17:46:27.138Z,4.60
2018-04-11T17:48:54.586Z,10.50
2018-04-11T17:51:22.029Z,3.50
2018-04-11T17:53:49.475Z,2.87
2018-04-11T17:56:16.901Z,2.80
2018-04-11T17:58:44.345Z,2.73
2018-04-11T18:01:11.774Z,7.00
2018-04-11T18:03:39.218Z,4.63
2018-04-11T18:06:07.426Z,3.53
2018-04-11T18:08:34.883Z,4.10
2018-04-11T18:11:02.318Z,3.83
2018-04-11T18:13:29.767Z,4.03
2018-04-11T18:15:57.989Z,8.97
2018-04-11T18:18:25.430Z,4.30
2018-04-11T18:20:52.875Z,5.83
2018-04-11T18:23:20.322Z,3.40
2018-04-11T18:25:47.758Z,5.40
2018-04-11T18:28:15.978Z,3.97
2018-04-11T18:30:43.430Z,4.20
2018-04-11T18:33:10.874Z,4.10
2018-04-11T18:35:38.325Z,5.83
2018-04-11T18:38:05.761Z,5.13
2018-04-11T18:40:33.987Z,6.93
2018-04-11T18:43:01.436Z,5.30
2018-04-11T18:45:28.899Z,5.40
2018-04-11T18:47:56.336Z,5.37
2018-04-11T18:50:23.805Z,5.63
2018-04-11T18:52:51.248Z,5.40
2018-04-11T18:55:18.689Z,5.73
2018-04-11T18:57:46.891Z,5.97
2018-04-11T19:00:14.341Z,5.87
2018-04-11T19:02:41.784Z,6.13
2018-04-11T19:05:09.235Z,5.50
2018-04-11T19:07:37.430Z,5.93
2018-04-11T19:10:04.874Z,5.63
2018-04-11T19:12:32.309Z,5.57
2018-04-11T19:15:00.531Z,5.53
2018-04-11T19:17:27.969Z,5.57
2018-04-11T19:19:55.436Z,5.20
2018-04-11T19:22:22.881Z,5.60
2018-04-11T19:24:50.321Z,5.60
2018-04-11T19:27:18.522Z,5.57
2018-04-11T19:29:45.969Z,5.87
2018-04-11T19:32:13.397Z,6.47
2018-04-11T19:34:40.855Z,6.40
2018-04-11T19:37:08.288Z,6.33
2018-04-11T19:39:35.731Z,6.77
2018-04-11T19:42:03.174Z,6.73
2018-04-11T19:44:30.617Z,6.77
2018-04-11T19:46:58.054Z,6.90
2018-04-11T19:49:26.270Z,6.63
2018-04-11T19:51:53.706Z,7.10
2018-04-11T19:54:21.186Z,7.40
2018-04-11T19:56:48.610Z,6.97
2018-04-11T19:59:16.069Z,7.50
2018-04-11T20:01:43.513Z,7.43
2018-04-11T20:04:11.746Z,7.27
2018-04-11T20:06:39.209Z,7.57
2018-04-11T20:09:06.670Z,7.33
2018-04-11T20:11:34.097Z,7.00
2018-04-11T20:14:01.555Z,7.20
2018-04-11T20:16:28.994Z,7.50
2018-04-11T20:18:56.442Z,8.87
2018-04-11T20:21:23.890Z,9.20
2018-04-11T20:23:52.120Z,9.83
2018-04-11T20:26:19.566Z,10.83
2018-04-11T20:28:47.029Z,10.53
2018-04-11T20:31:14.492Z,9.57
2018-04-11T20:33:41.946Z,10.80
2018-04-11T20:36:09.419Z,9.97
2018-04-11T20:38:36.860Z,9.87
2018-04-11T20:41:04.310Z,10.47
2018-04-11T20:43:31.773Z,8.77
2018-04-11T20:45:59.231Z,9.07
2018-04-11T20:48:26.667Z,9.33
2018-04-11T20:50:54.119Z,8.47
2018-04-11T20:53:21.563Z,8.87
2018-04-11T20:55:49.006Z,8.90
2018-04-11T20:58:17.218Z,8.87
2018-04-11T21:00:44.661Z,9.00
2018-04-11T21:03:12.108Z,9.03
2018-04-11T21:05:39.559Z,8.80
2018-04-11T21:08:07.013Z,9.67
2018-04-11T21:10:35.234Z,9.90
2018-04-11T21:13:02.697Z,9.17
2018-04-11T21:15:30.149Z,10.50
2018-04-11T21:17:57.606Z,10.03
2018-04-11T21:20:25.822Z,10.27
2018-04-11T21:22:54.030Z,10.93
2018-04-11T21:25:21.490Z,11.57
2018-04-11T21:27:48.953Z,11.07
2018-04-11T21:30:16.404Z,10.53
2018-04-11T21:32:43.850Z,11.70
2018-04-11T21:35:11.311Z,11.00
2018-04-11T21:37:38.745Z,11.20
2018-04-11T21:40:06.971Z,10.93
2018-04-11T21:42:34.414Z,10.13
2018-04-11T21:45:01.890Z,10.33
2018-04-11T21:47:29.342Z,11.40
2018-04-11T21:49:56.798Z,10.47
2018-04-11T21:52:24.242Z,10.43
2018-04-11T21:54:51.698Z,10.27
2018-04-11T21:57:19.142Z,10.03
2018-04-11T21:59:46.610Z,9.97
2018-04-11T22:02:14.062Z,9.13
2018-04-11T22:04:41.526Z,9.10
2018-04-11T22:07:08.970Z,9.43
2018-04-11T22:09:36.430Z,9.67
2018-04-11T22:12:03.867Z,9.67
2018-04-11T22:14:32.106Z,9.93
2018-04-11T22:16:59.555Z,9.73
2018-04-11T22:19:27.003Z,7.77
2018-04-11T22:21:54.466Z,9.20
2018-04-11T22:24:21.926Z,9.00
2018-04-11T22:26:49.361Z,8.60
2018-04-11T22:29:16.834Z,8.60
2018-04-11T22:31:44.274Z,7.90
2018-04-11T22:34:11.732Z,8.10
2018-04-11T22:36:39.178Z,8.93
2018-04-11T22:39:06.622Z,7.40
2018-04-11T22:41:34.069Z,8.60
2018-04-11T22:44:02.265Z,9.50
2018-04-11T22:46:29.718Z,9.20
2018-04-11T22:48:57.161Z,8.80
2018-04-11T22:51:25.382Z,8.80
2018-04-11T22:53:52.830Z,7.87
2018-04-11T22:56:20.291Z,9.13
2018-04-11T22:58:47.731Z,8.03
2018-04-11T23:01:15.190Z,8.70
2018-04-11T23:03:42.633Z,9.07
2018-04-11T23:06:10.094Z,8.33
2018-04-11T23:08:37.533Z,8.93
2018-04-11T23:11:05.744Z,8.40
2018-04-11T23:13:33.197Z,8.07
2018-04-11T23:16:00.658Z,9.00
2018-04-11T23:18:28.117Z,8.20
2018-04-11T23:20:55.559Z,7.53
2018-04-11T23:23:23.006Z,8.83
2018-04-11T23:25:50.470Z,7.50
2018-04-11T23:28:17.917Z,8.40
2018-04-11T23:30:45.373Z,9.43
2018-04-11T23:33:12.808Z,7.40
2018-04-11T23:35:41.031Z,8.83
2018-04-11T23:38:08.470Z,8.47
2018-04-11T23:40:35.926Z,9.10
2018-04-11T23:43:03.361Z,8.77
2018-04-11T23:45:31.586Z,8.67
2018-04-11T23:47:59.018Z,8.80
2018-04-11T23:50:26.475Z,9.27
2018-04-11T23:52:53.914Z,9.23
2018-04-11T23:55:22.130Z,9.93
2018-04-11T23:57:49.580Z,8.93
